Pagrindinis puslapis
METAR-TAF:

METAR-TAF

Oro uostai :

Vitorija, Espirito Santas, Brazilija

platuma: 20-16S, ilguma: 040-17W, Aukštis: 4 m

Dabartinis oras

Ataskaita buvo paskelbta 32 minutes, ne 09:00 UTC
Vėjas 4 kt iš Pietų
Temperatūra 24°C
Drėgmė 78%
Slėgis 1013 hPa
Matomumas 10 km arba daugiau
Mažai debesys ne aukštis 4500 ft
Su prošvaistėmis ne aukštis 7000 ft

METAR: SBVT 200900Z 19004KT 9999 FEW045 BKN070 24/20 Q1013

Laikas: 06:32 (09:32 UTC)

Prognozė

Ataskaita buvo paskelbta 5 valandos ir 32 minutes, ne 04:00 UTC
Prognozė galioja nuo 20 metu 06 UTC su 21 metu 06 UTC
Vėjas 6 kt iš Pietvakarių
Matomumas 10 km arba daugiau
Išsisklaidę debesys ne aukštis 2000 ft
Tapsmas
nuo 20 metu 12 UTC su 20 metu 14 UTC
Vėjas 12 kt iš Pietų/Pietryčių
Tapsmas
nuo 20 metu 15 UTC su 20 metu 17 UTC
Matomumas: 8000 m
Išsisklaidę debesys ne aukštis 1700 ft
Išsisklaidę debesys ne aukštis 4000 ft

TAF: SBVT 200400Z 2006/2106 22006KT 9999 SCT020 TN21/2006Z TX28/2015Z BECMG 2012/2014 16012KT BECMG 2015/2017 8000 SCT017 SCT040 RMK PEU

Orai ataskaitas ir orų prognozės (METAR, TAF).

turimą stotys yra geltonos ir raudonos taškus žemėlapyje.

Perkelti pele per norėdami pamatyti stoties vardą.

Tada spustelėkite, norėdami matyti oro stebėjimo ir prognozės.

Norėdami pakeisti žemėlapį: spustelėkite ant žalios mygtukų su juodo kryžiaus žemyn,; žalią mygtuką su brūkšneliu, jei norite nutolinti; arba žalių rodyklių gretimoms žemėlapius.


METAR-TAF: